Time;durP1;ratioP1;P1;durP2;ratioP2;P2;SDS_P1;SDS_P2;PMS_P1;PMS_P2;Temp;Humidity;BMP_temperature;BMP_pressure;BME280_temperature;BME280_humidity;BME280_pressure;Samples;Min_cycle;Max_cycle;Signal;HPM_P1;HPM_P2
2022/08/22 00:02:41;;;;;;;1.05;0.40;;;;;;;;;;4951674;28;20051;-81
2022/08/22 00:05:33;;;;;;;0.80;0.57;;;;;;;;;;4950359;28;20053;-81
2022/08/22 00:08:03;;;;;;;0.52;0.43;;;;;;;;;;4964150;28;20082;-80
2022/08/22 00:10:35;;;;;;;0.15;0.10;;;;;;;;;;4971253;28;20069;-81
2022/08/22 00:13:06;;;;;;;0.50;0.43;;;;;;;;;;4970478;28;20137;-80
2022/08/22 00:15:37;;;;;;;1.15;0.80;;;;;;;;;;4965006;28;20146;-80
2022/08/22 00:18:16;;;;;;;0.38;0.38;;;;;;;;;;4967296;28;20071;-81
2022/08/22 00:20:47;;;;;;;0.40;0.40;;;;;;;;;;4967438;28;20138;-81
2022/08/22 00:23:17;;;;;;;1.13;0.50;;;;;;;;;;4970070;28;20046;-80
2022/08/22 00:25:51;;;;;;;0.57;0.38;;;;;;;;;;4971124;28;20384;-79
2022/08/22 00:28:21;;;;;;;1.10;0.70;;;;;;;;;;4970083;28;20130;-80
2022/08/22 00:30:56;;;;;;;0.63;0.55;;;;;;;;;;4966456;28;20046;-80
2022/08/22 00:33:31;;;;;;;1.00;0.50;;;;;;;;;;4970144;28;20054;-82
2022/08/22 00:36:24;;;;;;;0.50;0.50;;;;;;;;;;4966433;28;20135;-79
2022/08/22 00:38:55;;;;;;;2.97;0.98;;;;;;;;;;4937813;28;20062;-80
2022/08/22 00:41:31;;;;;;;2.85;0.80;;;;;;;;;;4970254;28;20126;-80
2022/08/22 00:44:20;;;;;;;0.85;0.35;;;;;;;;;;4968976;28;20491;-80
2022/08/22 00:46:57;;;;;;;0.30;0.30;;;;;;;;;;4935311;28;20844;-80
2022/08/22 00:49:43;;;;;;;0.85;0.38;;;;;;;;;;4970335;28;20158;-83
2022/08/22 00:52:23;;;;;;;1.02;0.70;;;;;;;;;;4968923;28;20418;-80
2022/08/22 00:55:01;;;;;;;0.63;0.40;;;;;;;;;;4970516;28;20530;-79
2022/08/22 00:57:36;;;;;;;0.98;0.43;;;;;;;;;;4969739;28;20569;-82
2022/08/22 01:00:11;;;;;;;0.25;0.25;;;;;;;;;;4969914;28;20077;-81
2022/08/22 01:02:54;;;;;;;0.75;0.63;;;;;;;;;;4970195;28;20089;-79
2022/08/22 01:05:35;;;;;;;1.13;0.50;;;;;;;;;;4970165;28;20583;-83
2022/08/22 01:08:09;;;;;;;0.45;0.45;;;;;;;;;;4966916;28;20074;-80
2022/08/22 01:10:45;;;;;;;0.70;0.70;;;;;;;;;;4969037;28;20562;-80
2022/08/22 01:13:19;;;;;;;3.90;0.60;;;;;;;;;;4970337;28;20133;-80
2022/08/22 01:15:48;;;;;;;0.50;0.50;;;;;;;;;;4970244;28;20134;-82
2022/08/22 01:18:34;;;;;;;1.10;0.40;;;;;;;;;;4959661;28;20054;-80
2022/08/22 01:21:34;;;;;;;0.38;0.38;;;;;;;;;;4968889;28;20130;-80
2022/08/22 01:24:18;;;;;;;0.98;0.80;;;;;;;;;;4973987;28;20466;-82
2022/08/22 01:27:06;;;;;;;0.50;0.38;;;;;;;;;;4973243;28;20051;-80
2022/08/22 01:29:58;;;;;;;0.60;0.60;;;;;;;;;;4963358;28;20047;-80
2022/08/22 01:32:49;;;;;;;0.60;0.60;;;;;;;;;;4973553;28;20138;-80
2022/08/22 01:35:36;;;;;;;1.67;0.63;;;;;;;;;;4973836;28;20059;-80
2022/08/22 01:38:22;;;;;;;0.28;0.25;;;;;;;;;;4973086;28;20125;-79
2022/08/22 01:41:05;;;;;;;1.08;0.52;;;;;;;;;;4971139;28;20129;-80
2022/08/22 01:43:45;;;;;;;0.60;0.60;;;;;;;;;;4973382;28;20083;-82
2022/08/22 01:46:33;;;;;;;2.08;0.50;;;;;;;;;;4971343;28;20113;-80
2022/08/22 01:49:05;;;;;;;1.45;0.85;;;;;;;;;;4969725;28;20133;-80
2022/08/22 01:51:39;;;;;;;2.72;0.63;;;;;;;;;;4972249;28;20314;-80
2022/08/22 01:54:10;;;;;;;0.60;0.38;;;;;;;;;;4970869;28;20118;-80
2022/08/22 01:56:41;;;;;;;0.55;0.38;;;;;;;;;;4968555;28;20405;-81
2022/08/22 01:59:11;;;;;;;0.65;0.50;;;;;;;;;;4973108;28;20055;-80
2022/08/22 02:01:45;;;;;;;0.68;0.35;;;;;;;;;;4964649;28;20137;-80
2022/08/22 02:04:17;;;;;;;0.80;0.38;;;;;;;;;;4972319;28;20082;-80
2022/08/22 02:06:51;;;;;;;0.13;0.13;;;;;;;;;;4972190;28;20495;-79
2022/08/22 02:09:29;;;;;;;0.83;0.60;;;;;;;;;;4973089;28;20423;-80
2022/08/22 02:12:00;;;;;;;0.85;0.55;;;;;;;;;;4973373;28;20093;-81
2022/08/22 02:14:38;;;;;;;0.55;0.43;;;;;;;;;;4972692;28;20067;-79
2022/08/22 02:17:14;;;;;;;0.20;0.20;;;;;;;;;;4972032;28;20074;-79
2022/08/22 02:19:47;;;;;;;0.35;0.30;;;;;;;;;;4972621;28;20182;-79
2022/08/22 02:22:23;;;;;;;0.75;0.40;;;;;;;;;;4966904;28;20489;-80
2022/08/22 02:24:54;;;;;;;1.05;0.50;;;;;;;;;;4972572;28;20602;-79
2022/08/22 02:27:27;;;;;;;0.77;0.63;;;;;;;;;;4969838;28;20074;-79
2022/08/22 02:30:00;;;;;;;0.80;0.80;;;;;;;;;;4973013;28;20058;-81
2022/08/22 02:32:30;;;;;;;0.47;0.40;;;;;;;;;;4971672;28;20137;-83
2022/08/22 02:35:03;;;;;;;0.40;0.40;;;;;;;;;;4971297;28;20138;-83
2022/08/22 02:37:36;;;;;;;0.65;0.30;;;;;;;;;;4969463;28;20132;-79
2022/08/22 02:40:08;;;;;;;0.80;0.50;;;;;;;;;;4968055;28;20117;-80
2022/08/22 02:42:40;;;;;;;1.10;0.60;;;;;;;;;;4972745;28;20055;-81
2022/08/22 02:45:16;;;;;;;0.82;0.57;;;;;;;;;;4972230;28;20057;-82
2022/08/22 02:47:49;;;;;;;1.67;0.95;;;;;;;;;;4971338;28;20083;-80
2022/08/22 02:50:19;;;;;;;0.50;0.45;;;;;;;;;;4973985;28;20082;-79
2022/08/22 02:52:56;;;;;;;0.35;0.35;;;;;;;;;;4971121;28;20043;-79
2022/08/22 02:55:36;;;;;;;0.90;0.70;;;;;;;;;;4971256;28;20133;-79
2022/08/22 02:58:06;;;;;;;0.40;0.30;;;;;;;;;;4968104;28;20192;-79
2022/08/22 03:00:43;;;;;;;0.93;0.70;;;;;;;;;;4972170;28;20081;-79
2022/08/22 03:03:16;;;;;;;0.38;0.38;;;;;;;;;;4972160;28;20418;-81
2022/08/22 03:05:50;;;;;;;1.85;0.57;;;;;;;;;;4971451;28;20479;-80
2022/08/22 03:08:23;;;;;;;0.28;0.28;;;;;;;;;;4971020;28;20340;-81
2022/08/22 03:10:57;;;;;;;0.52;0.52;;;;;;;;;;4972103;28;20097;-79
2022/08/22 03:13:27;;;;;;;0.45;0.45;;;;;;;;;;4960947;28;20133;-79
2022/08/22 03:15:58;;;;;;;0.47;0.47;;;;;;;;;;4930825;29;20075;-79
2022/08/22 03:18:28;;;;;;;0.43;0.30;;;;;;;;;;4933079;29;20472;-80
2022/08/22 03:20:58;;;;;;;1.02;0.43;;;;;;;;;;4924328;29;20473;-80
2022/08/22 03:23:33;;;;;;;0.40;0.40;;;;;;;;;;4933331;29;20052;-79
2022/08/22 03:26:06;;;;;;;0.43;0.35;;;;;;;;;;4933548;29;20511;-80
2022/08/22 03:28:38;;;;;;;1.13;0.50;;;;;;;;;;4931930;28;20055;-80
2022/08/22 03:31:26;;;;;;;0.73;0.73;;;;;;;;;;4923728;29;20052;-80
2022/08/22 03:34:12;;;;;;;0.90;0.60;;;;;;;;;;4933746;29;20083;-80
2022/08/22 03:36:45;;;;;;;1.73;0.65;;;;;;;;;;4932220;28;20163;-80
2022/08/22 03:39:15;;;;;;;;;;;;;;;;;;4921962;29;20050;-80
2022/08/22 03:41:56;;;;;;;0.35;0.17;;;;;;;;;;4932222;29;19923;-80
2022/08/22 03:44:43;;;;;;;0.32;0.32;;;;;;;;;;4933315;29;20412;-80
2022/08/22 03:47:26;;;;;;;0.43;0.43;;;;;;;;;;4931224;28;20646;-80
2022/08/22 03:50:14;;;;;;;0.35;0.35;;;;;;;;;;4923668;29;20040;-80
2022/08/22 03:53:09;;;;;;;0.77;0.77;;;;;;;;;;4933178;29;20091;-79
2022/08/22 03:56:01;;;;;;;0.35;0.32;;;;;;;;;;4930591;29;20107;-80
2022/08/22 03:58:51;;;;;;;0.85;0.38;;;;;;;;;;4925564;29;20078;-81
2022/08/22 04:01:37;;;;;;;0.43;0.43;;;;;;;;;;4928224;29;20135;-80
2022/08/22 04:04:20;;;;;;;0.82;0.70;;;;;;;;;;4933061;29;20087;-81
2022/08/22 04:07:07;;;;;;;0.40;0.40;;;;;;;;;;4930226;28;20405;-80
2022/08/22 04:10:09;;;;;;;0.43;0.38;;;;;;;;;;4929302;29;20043;-80
2022/08/22 04:12:47;;;;;;;1.50;0.47;;;;;;;;;;4932358;29;20079;-80
2022/08/22 04:15:46;;;;;;;0.45;0.43;;;;;;;;;;4945763;28;20510;-79
2022/08/22 04:18:24;;;;;;;0.68;0.50;;;;;;;;;;4908266;29;20072;-80
2022/08/22 04:21:13;;;;;;;0.60;0.60;;;;;;;;;;4960177;28;20078;-80
2022/08/22 04:24:01;;;;;;;1.05;0.85;;;;;;;;;;4968220;28;20566;-81
2022/08/22 04:26:33;;;;;;;0.13;0.13;;;;;;;;;;4965841;28;20503;-82
2022/08/22 04:29:06;;;;;;;1.90;0.40;;;;;;;;;;4970127;28;20050;-81
2022/08/22 04:31:36;;;;;;;0.57;0.38;;;;;;;;;;4970246;28;20057;-79
2022/08/22 04:34:14;;;;;;;0.63;0.57;;;;;;;;;;4970731;28;20043;-80
2022/08/22 04:36:46;;;;;;;0.30;0.30;;;;;;;;;;4970596;28;20097;-80
2022/08/22 04:39:17;;;;;;;0.20;0.20;;;;;;;;;;4958623;28;20134;-80
2022/08/22 04:41:48;;;;;;;0.73;0.30;;;;;;;;;;4973543;28;20085;-80
2022/08/22 04:44:19;;;;;;;1.85;0.30;;;;;;;;;;4970569;28;20075;-79
2022/08/22 04:46:50;;;;;;;0.28;0.20;;;;;;;;;;4965641;28;20079;-79
2022/08/22 04:49:23;;;;;;;0.95;0.80;;;;;;;;;;4951852;28;20819;-83
2022/08/22 04:51:54;;;;;;;0.75;0.68;;;;;;;;;;4950568;28;20127;-79
2022/08/22 04:54:38;;;;;;;0.73;0.73;;;;;;;;;;4950603;28;20138;-80
2022/08/22 04:57:11;;;;;;;3.28;0.80;;;;;;;;;;4958244;28;20047;-80
2022/08/22 04:59:40;;;;;;;1.75;0.68;;;;;;;;;;4970131;28;20432;-78
2022/08/22 05:02:10;;;;;;;2.08;0.70;;;;;;;;;;4968028;28;20094;-81
2022/08/22 05:04:42;;;;;;;0.63;0.50;;;;;;;;;;4968829;28;20055;-80
2022/08/22 05:07:12;;;;;;;3.38;0.60;;;;;;;;;;4961120;28;20070;-80
2022/08/22 05:09:43;;;;;;;0.28;0.28;;;;;;;;;;4971602;28;20046;-79
2022/08/22 05:12:14;;;;;;;0.63;0.63;;;;;;;;;;4969329;28;20563;-81
2022/08/22 05:14:43;;;;;;;0.65;0.60;;;;;;;;;;4969949;28;20093;-80
2022/08/22 05:17:14;;;;;;;0.20;0.20;;;;;;;;;;4969743;28;20043;-80
2022/08/22 05:19:49;;;;;;;0.50;0.40;;;;;;;;;;4970118;28;20049;-79
2022/08/22 05:22:20;;;;;;;1.27;0.65;;;;;;;;;;4969853;28;20055;-79
2022/08/22 05:24:50;;;;;;;0.85;0.80;;;;;;;;;;4970358;28;20142;-80
2022/08/22 05:27:22;;;;;;;0.70;0.47;;;;;;;;;;4967671;28;20050;-82
2022/08/22 05:29:52;;;;;;;1.20;0.93;;;;;;;;;;4969293;28;20507;-79
2022/08/22 05:32:25;;;;;;;2.78;0.60;;;;;;;;;;4970043;28;20097;-81
2022/08/22 05:35:02;;;;;;;0.40;0.40;;;;;;;;;;4969357;28;20492;-80
2022/08/22 05:37:35;;;;;;;0.25;0.25;;;;;;;;;;4968216;28;20141;-80
2022/08/22 05:40:04;;;;;;;0.40;0.35;;;;;;;;;;4969838;28;20192;-79
2022/08/22 05:42:36;;;;;;;0.47;0.32;;;;;;;;;;4960691;28;20749;-79
2022/08/22 05:45:06;;;;;;;0.22;0.22;;;;;;;;;;4970395;28;20384;-80
2022/08/22 05:47:39;;;;;;;;;;;;;;;;;;4969710;28;20066;-79
2022/08/22 05:50:12;;;;;;;0.55;0.50;;;;;;;;;;4970026;28;20366;-80
2022/08/22 05:52:51;;;;;;;0.60;0.60;;;;;;;;;;4970249;28;20090;-80
2022/08/22 05:55:24;;;;;;;1.00;0.30;;;;;;;;;;4969018;28;20090;-82
2022/08/22 05:58:10;;;;;;;0.28;0.28;;;;;;;;;;4972598;28;20059;-80
2022/08/22 06:00:38;;;;;;;;;;;;;;;;;;4968725;28;20559;-79
2022/08/22 06:03:13;;;;;;;0.25;0.25;;;;;;;;;;4976145;28;20406;-82
2022/08/22 06:05:45;;;;;;;1.30;0.75;;;;;;;;;;4971953;28;20073;-80
2022/08/22 06:08:18;;;;;;;0.43;0.40;;;;;;;;;;4972706;28;20109;-80
2022/08/22 06:10:48;;;;;;;1.48;0.35;;;;;;;;;;4972994;28;20074;-80
2022/08/22 06:13:20;;;;;;;2.33;0.70;;;;;;;;;;4961694;28;20089;-80
2022/08/22 06:15:55;;;;;;;1.02;0.55;;;;;;;;;;4974064;28;20090;-80
2022/08/22 06:18:26;;;;;;;0.40;0.40;;;;;;;;;;4973088;28;20055;-80
2022/08/22 06:20:56;;;;;;;1.15;0.80;;;;;;;;;;4973032;28;20050;-80
2022/08/22 06:23:27;;;;;;;0.47;0.47;;;;;;;;;;4972884;28;20057;-80
2022/08/22 06:25:58;;;;;;;1.15;0.52;;;;;;;;;;4972958;28;20055;-79
2022/08/22 06:28:28;;;;;;;0.65;0.65;;;;;;;;;;4972956;28;20489;-80
2022/08/22 06:30:57;;;;;;;1.10;0.70;;;;;;;;;;4973285;28;20129;-80
2022/08/22 06:33:27;;;;;;;0.50;0.43;;;;;;;;;;4973061;28;20142;-80
2022/08/22 06:38:57;;;;;;;0.90;0.57;;;;;;;;;;4973621;28;20134;-80
2022/08/22 06:41:29;;;;;;;2.88;0.77;;;;;;;;;;4973021;28;20051;-79
2022/08/22 06:43:58;;;;;;;1.25;0.93;;;;;;;;;;4971275;28;20078;-79
2022/08/22 06:46:28;;;;;;;1.15;0.85;;;;;;;;;;4972460;28;20697;-79
2022/08/22 06:48:59;;;;;;;2.75;1.02;;;;;;;;;;4973578;28;20097;-79
2022/08/22 06:51:29;;;;;;;4.38;1.83;;;;;;;;;;4972337;28;20050;-79
2022/08/22 06:54:00;;;;;;;0.73;0.60;;;;;;;;;;4968289;28;20513;-80
2022/08/22 06:56:31;;;;;;;2.17;0.95;;;;;;;;;;4970582;28;20078;-80
2022/08/22 06:59:01;;;;;;;0.98;0.88;;;;;;;;;;4972274;28;20050;-80
2022/08/22 07:01:31;;;;;;;1.60;1.00;;;;;;;;;;4972849;28;20079;-82
2022/08/22 07:04:01;;;;;;;1.15;0.90;;;;;;;;;;4972927;28;20074;-83
2022/08/22 07:06:32;;;;;;;2.80;1.05;;;;;;;;;;4971165;28;20495;-82
2022/08/22 07:09:01;;;;;;;1.88;1.08;;;;;;;;;;4972806;28;20047;-80
2022/08/22 07:11:37;;;;;;;1.77;1.17;;;;;;;;;;4970146;28;20050;-80
2022/08/22 07:14:07;;;;;;;2.15;1.27;;;;;;;;;;4967404;28;20518;-80
2022/08/22 07:16:41;;;;;;;1.05;0.80;;;;;;;;;;4971796;28;20047;-80
2022/08/22 07:19:11;;;;;;;1.67;1.08;;;;;;;;;;4971359;28;20071;-79
2022/08/22 07:21:44;;;;;;;1.10;0.73;;;;;;;;;;4972217;28;20072;-80
2022/08/22 07:24:16;;;;;;;2.08;1.10;;;;;;;;;;4971966;28;20129;-80
2022/08/22 07:26:51;;;;;;;2.03;1.20;;;;;;;;;;4968043;28;20407;-80
2022/08/22 07:29:26;;;;;;;2.80;0.93;;;;;;;;;;4971606;28;20047;-81
2022/08/22 07:31:57;;;;;;;4.35;1.23;;;;;;;;;;4969156;28;20043;-80
2022/08/22 07:34:31;;;;;;;1.30;1.02;;;;;;;;;;4964643;28;20093;-81
2022/08/22 07:37:05;;;;;;;0.63;0.63;;;;;;;;;;4970449;28;20054;-80
2022/08/22 07:39:36;;;;;;;0.68;0.52;;;;;;;;;;4971852;28;20055;-80
2022/08/22 07:42:10;;;;;;;1.08;0.88;;;;;;;;;;4971085;28;20053;-81
2022/08/22 07:44:47;;;;;;;0.50;0.50;;;;;;;;;;4972214;28;20101;-81
2022/08/22 07:47:18;;;;;;;0.93;0.45;;;;;;;;;;4971104;28;20047;-80
2022/08/22 07:49:55;;;;;;;1.02;0.65;;;;;;;;;;4971818;28;20074;-80
2022/08/22 07:52:26;;;;;;;0.30;0.30;;;;;;;;;;4970246;28;20078;-80
2022/08/22 07:54:57;;;;;;;2.25;1.20;;;;;;;;;;4972008;28;20136;-80
2022/08/22 07:57:29;;;;;;;2.10;0.90;;;;;;;;;;4965841;28;20086;-80
2022/08/22 07:59:59;;;;;;;0.80;0.80;;;;;;;;;;4970011;28;20136;-80
2022/08/22 08:02:28;;;;;;;0.95;0.70;;;;;;;;;;4970586;28;20133;-81
2022/08/22 08:04:59;;;;;;;1.38;0.88;;;;;;;;;;4971389;28;20078;-80
2022/08/22 08:07:30;;;;;;;1.40;0.40;;;;;;;;;;4970839;28;20182;-80
2022/08/22 08:10:02;;;;;;;1.23;0.50;;;;;;;;;;4971443;28;20051;-81
2022/08/22 08:12:34;;;;;;;0.85;0.55;;;;;;;;;;4968249;28;20090;-81
2022/08/22 08:15:04;;;;;;;0.85;0.77;;;;;;;;;;4970578;28;20058;-80
2022/08/22 08:17:33;;;;;;;0.88;0.60;;;;;;;;;;4971215;28;20056;-80
2022/08/22 08:20:05;;;;;;;1.13;0.80;;;;;;;;;;4971201;28;20089;-80
2022/08/22 08:22:37;;;;;;;1.23;0.85;;;;;;;;;;4970773;28;20130;-81
2022/08/22 08:25:07;;;;;;;3.33;0.70;;;;;;;;;;4970669;28;20051;-81
2022/08/22 08:30:24;;;;;;;0.50;0.50;;;;;;;;;;4955799;28;20400;-82
2022/08/22 08:32:55;;;;;;;1.25;0.82;;;;;;;;;;4971590;28;20515;-81
2022/08/22 08:35:47;;;;;;;0.90;0.82;;;;;;;;;;4969996;28;20185;-80
2022/08/22 08:38:38;;;;;;;5.85;0.90;;;;;;;;;;4969942;28;20511;-80
2022/08/22 08:41:30;;;;;;;2.17;0.95;;;;;;;;;;4965077;28;20105;-80
2022/08/22 08:44:04;;;;;;;0.50;0.50;;;;;;;;;;4965714;28;20137;-81
2022/08/22 08:46:53;;;;;;;1.00;0.60;;;;;;;;;;4967945;28;20499;-82
2022/08/22 08:49:35;;;;;;;1.25;0.57;;;;;;;;;;4958270;28;20058;-80
2022/08/22 08:52:31;;;;;;;0.20;0.20;;;;;;;;;;4960237;28;20057;-82
2022/08/22 08:55:06;;;;;;;0.70;0.50;;;;;;;;;;4970591;28;20089;-82
2022/08/22 08:57:54;;;;;;;0.95;0.55;;;;;;;;;;4963001;28;20054;-81
2022/08/22 09:00:25;;;;;;;1.17;0.85;;;;;;;;;;4966124;28;20114;-81
2022/08/22 09:03:06;;;;;;;2.60;0.60;;;;;;;;;;4970253;28;20057;-80
2022/08/22 09:05:45;;;;;;;2.00;1.27;;;;;;;;;;4970491;28;20042;-80
2022/08/22 09:08:24;;;;;;;0.52;0.50;;;;;;;;;;4969742;28;20491;-81
2022/08/22 09:11:08;;;;;;;1.52;0.70;;;;;;;;;;4970348;28;20046;-81
2022/08/22 09:13:48;;;;;;;2.53;0.70;;;;;;;;;;4964779;28;20059;-80
2022/08/22 09:16:24;;;;;;;1.35;0.60;;;;;;;;;;4969258;28;20054;-81
2022/08/22 09:19:20;;;;;;;2.60;0.60;;;;;;;;;;4969933;28;20455;-81
2022/08/22 09:22:07;;;;;;;1.42;0.77;;;;;;;;;;4946196;28;20046;-81
2022/08/22 09:25:10;;;;;;;1.13;0.93;;;;;;;;;;4965488;28;20508;-80
2022/08/22 09:27:45;;;;;;;4.85;0.60;;;;;;;;;;4970120;28;20098;-80
2022/08/22 09:30:16;;;;;;;0.85;0.73;;;;;;;;;;4967961;28;20043;-80
2022/08/22 09:32:57;;;;;;;1.75;0.68;;;;;;;;;;4960921;28;20106;-80
2022/08/22 09:35:28;;;;;;;1.23;0.75;;;;;;;;;;4969816;28;20087;-80
2022/08/22 09:38:13;;;;;;;1.40;0.90;;;;;;;;;;4969963;28;20086;-80
2022/08/22 09:40:45;;;;;;;0.55;0.52;;;;;;;;;;4968868;28;20492;-80
2022/08/22 09:43:16;;;;;;;0.70;0.65;;;;;;;;;;4973946;28;20082;-81
2022/08/22 09:45:51;;;;;;;1.35;0.70;;;;;;;;;;4972745;28;20058;-81
2022/08/22 09:48:34;;;;;;;0.57;0.50;;;;;;;;;;4973458;28;20047;-81
2022/08/22 09:51:10;;;;;;;1.17;0.60;;;;;;;;;;4974033;28;20139;-80
2022/08/22 09:54:09;;;;;;;1.13;0.50;;;;;;;;;;4964083;28;20457;-82
2022/08/22 09:56:39;;;;;;;1.67;0.70;;;;;;;;;;4972606;28;20046;-81
2022/08/22 09:59:11;;;;;;;3.50;0.50;;;;;;;;;;4973590;28;20118;-80
2022/08/22 10:01:48;;;;;;;0.45;0.38;;;;;;;;;;4973798;28;20061;-80
2022/08/22 10:04:43;;;;;;;0.95;0.43;;;;;;;;;;4973879;28;20047;-81
2022/08/22 10:07:12;;;;;;;;;;;;;;;;;;4965286;28;20113;-80
2022/08/22 10:09:44;;;;;;;0.95;0.60;;;;;;;;;;4972723;28;19922;-80
2022/08/22 10:12:17;;;;;;;1.83;0.60;;;;;;;;;;4974136;28;20484;-81
2022/08/22 10:15:01;;;;;;;0.85;0.60;;;;;;;;;;4969666;28;20065;-81
2022/08/22 10:17:31;;;;;;;0.60;0.43;;;;;;;;;;4971925;28;20078;-80
2022/08/22 10:20:04;;;;;;;0.70;0.70;;;;;;;;;;4973800;28;20061;-83
2022/08/22 10:22:39;;;;;;;0.70;0.70;;;;;;;;;;4972792;28;20093;-82
2022/08/22 10:25:21;;;;;;;1.40;0.77;;;;;;;;;;4965919;28;20054;-82
2022/08/22 10:27:53;;;;;;;2.50;1.05;;;;;;;;;;4972042;28;20070;-81
2022/08/22 10:30:26;;;;;;;0.75;0.55;;;;;;;;;;4964855;28;20137;-83
2022/08/22 10:33:01;;;;;;;1.70;0.80;;;;;;;;;;4971369;28;20038;-81
2022/08/22 10:35:31;;;;;;;0.52;0.50;;;;;;;;;;4969880;28;20046;-82
2022/08/22 10:38:05;;;;;;;2.00;0.55;;;;;;;;;;4969304;28;20073;-85
2022/08/22 10:40:39;;;;;;;0.70;0.60;;;;;;;;;;4970947;28;20074;-81
2022/08/22 10:43:10;;;;;;;0.68;0.47;;;;;;;;;;4972011;28;20137;-83
2022/08/22 10:45:42;;;;;;;2.35;0.77;;;;;;;;;;4967660;28;20446;-81
2022/08/22 10:48:28;;;;;;;0.80;0.50;;;;;;;;;;4972178;28;20054;-81
2022/08/22 10:51:04;;;;;;;1.55;0.60;;;;;;;;;;4972851;28;20114;-81
2022/08/22 10:53:44;;;;;;;0.82;0.63;;;;;;;;;;4967362;28;20083;-82
2022/08/22 10:56:15;;;;;;;0.98;0.52;;;;;;;;;;4966699;28;20125;-81
2022/08/22 10:58:53;;;;;;;0.80;0.52;;;;;;;;;;4971763;28;20055;-82
2022/08/22 11:01:25;;;;;;;1.33;0.82;;;;;;;;;;4971808;28;20051;-81
2022/08/22 11:04:12;;;;;;;0.95;0.65;;;;;;;;;;4968793;28;20541;-81
2022/08/22 11:06:44;;;;;;;2.92;0.57;;;;;;;;;;4971744;28;20137;-81
2022/08/22 11:09:23;;;;;;;0.55;0.40;;;;;;;;;;4964943;28;20047;-82
2022/08/22 11:11:56;;;;;;;0.82;0.63;;;;;;;;;;4972707;28;20035;-81
2022/08/22 11:14:43;;;;;;;1.95;0.63;;;;;;;;;;4971319;28;20791;-82
2022/08/22 11:17:28;;;;;;;0.47;0.47;;;;;;;;;;4970467;28;20482;-81
2022/08/22 11:20:13;;;;;;;0.65;0.50;;;;;;;;;;4970590;28;20050;-82
2022/08/22 11:22:45;;;;;;;2.42;0.43;;;;;;;;;;4972331;28;20053;-82
2022/08/22 11:25:19;;;;;;;1.30;0.50;;;;;;;;;;4971871;28;20093;-81
2022/08/22 11:28:23;;;;;;;1.88;0.88;;;;;;;;;;4964410;28;20047;-81
2022/08/22 11:30:57;;;;;;;1.27;0.60;;;;;;;;;;4969362;28;20051;-81
2022/08/22 11:33:30;;;;;;;0.50;0.40;;;;;;;;;;4971966;28;20043;-82
2022/08/22 11:36:26;;;;;;;0.60;0.40;;;;;;;;;;4961590;28;20066;-81
2022/08/22 11:39:02;;;;;;;0.43;0.30;;;;;;;;;;4971593;28;20061;-81
2022/08/22 11:41:38;;;;;;;1.75;0.50;;;;;;;;;;4971309;28;20053;-81
2022/08/22 11:44:12;;;;;;;1.65;0.40;;;;;;;;;;4970528;28;20055;-81
2022/08/22 11:46:43;;;;;;;1.50;0.43;;;;;;;;;;4966316;28;20495;-81
2022/08/22 11:49:29;;;;;;;0.50;0.50;;;;;;;;;;4972437;28;20118;-82
2022/08/22 11:52:10;;;;;;;1.88;0.60;;;;;;;;;;4971597;28;20047;-82
2022/08/22 11:54:47;;;;;;;4.78;1.00;;;;;;;;;;4971477;28;20066;-81
2022/08/22 11:57:20;;;;;;;0.57;0.57;;;;;;;;;;4963887;28;20473;-81
2022/08/22 12:00:08;;;;;;;1.08;0.40;;;;;;;;;;4971113;28;20042;-82
2022/08/22 12:02:43;;;;;;;3.42;0.30;;;;;;;;;;4971079;28;20078;-81
2022/08/22 12:05:19;;;;;;;0.85;0.50;;;;;;;;;;4971598;28;20126;-81
2022/08/22 12:07:55;;;;;;;0.80;0.65;;;;;;;;;;4971769;28;20054;-82
2022/08/22 12:10:28;;;;;;;0.90;0.40;;;;;;;;;;4967688;28;20101;-81
2022/08/22 12:12:59;;;;;;;1.08;0.50;;;;;;;;;;4972715;28;20109;-83
2022/08/22 12:15:32;;;;;;;1.02;0.55;;;;;;;;;;4971482;28;20086;-83
2022/08/22 12:18:19;;;;;;;0.47;0.40;;;;;;;;;;4972398;28;20582;-82
2022/08/22 12:21:08;;;;;;;0.80;0.40;;;;;;;;;;4971412;28;20047;-82
2022/08/22 12:23:45;;;;;;;1.33;0.60;;;;;;;;;;4970584;28;20549;-83
2022/08/22 12:26:22;;;;;;;1.73;0.65;;;;;;;;;;4970852;28;20046;-81
2022/08/22 12:28:58;;;;;;;1.10;0.40;;;;;;;;;;4970801;28;20108;-81
2022/08/22 12:31:31;;;;;;;0.30;0.30;;;;;;;;;;4970238;28;20460;-82
2022/08/22 12:34:18;;;;;;;0.65;0.40;;;;;;;;;;4970965;28;20086;-81
2022/08/22 12:37:07;;;;;;;1.67;0.60;;;;;;;;;;4970734;28;20463;-81
2022/08/22 12:39:44;;;;;;;3.97;0.60;;;;;;;;;;4961967;28;20050;-82
2022/08/22 12:42:22;;;;;;;0.98;0.50;;;;;;;;;;4970932;28;20153;-82
2022/08/22 12:44:59;;;;;;;0.75;0.45;;;;;;;;;;4971455;28;20050;-81
2022/08/22 12:47:36;;;;;;;1.30;0.45;;;;;;;;;;4960315;28;20439;-81
2022/08/22 12:50:18;;;;;;;2.78;0.90;;;;;;;;;;4971049;28;20487;-81
2022/08/22 12:52:53;;;;;;;1.25;0.40;;;;;;;;;;4970528;28;20121;-81
2022/08/22 12:55:31;;;;;;;0.85;0.60;;;;;;;;;;4968770;28;20051;-81
2022/08/22 12:58:06;;;;;;;2.58;1.20;;;;;;;;;;4970337;28;20051;-81
2022/08/22 13:00:36;;;;;;;0.95;0.55;;;;;;;;;;4967291;28;20050;-82
2022/08/22 13:03:06;;;;;;;2.90;0.82;;;;;;;;;;4970920;28;20443;-81
2022/08/22 13:05:37;;;;;;;0.60;0.45;;;;;;;;;;4963221;28;20043;-82
2022/08/22 13:08:12;;;;;;;0.50;0.50;;;;;;;;;;4970453;28;20058;-82
2022/08/22 13:10:45;;;;;;;0.35;0.30;;;;;;;;;;4964617;28;20054;-83
2022/08/22 13:13:17;;;;;;;1.17;0.40;;;;;;;;;;4969392;28;20051;-81
2022/08/22 13:16:07;;;;;;;0.70;0.60;;;;;;;;;;4969130;28;20055;-81
2022/08/22 13:18:40;;;;;;;0.47;0.40;;;;;;;;;;4937786;28;20055;-82
2022/08/22 13:21:15;;;;;;;1.05;0.65;;;;;;;;;;4966269;28;20102;-82
2022/08/22 13:23:47;;;;;;;0.50;0.45;;;;;;;;;;4955707;28;20090;-83
2022/08/22 13:26:19;;;;;;;0.70;0.50;;;;;;;;;;4956096;28;20055;-80
2022/08/22 13:29:03;;;;;;;4.07;0.60;;;;;;;;;;4974589;28;20059;-83
2022/08/22 13:31:52;;;;;;;0.60;0.55;;;;;;;;;;4965287;28;20059;-83
2022/08/22 13:34:31;;;;;;;0.47;0.40;;;;;;;;;;4974273;28;20677;-80
2022/08/22 13:37:07;;;;;;;0.70;0.55;;;;;;;;;;4974092;28;20495;-81
2022/08/22 13:39:41;;;;;;;1.95;0.40;;;;;;;;;;4972141;28;20051;-82
2022/08/22 13:42:16;;;;;;;2.10;0.77;;;;;;;;;;4975989;28;20101;-81
2022/08/22 13:45:00;;;;;;;3.20;0.98;;;;;;;;;;4974766;28;20054;-82
2022/08/22 13:47:31;;;;;;;1.15;0.68;;;;;;;;;;4960066;28;20066;-82
2022/08/22 13:50:07;;;;;;;0.73;0.65;;;;;;;;;;4955145;28;20063;-83
2022/08/22 13:52:39;;;;;;;2.53;0.85;;;;;;;;;;4955899;28;20051;-81
2022/08/22 13:55:13;;;;;;;0.90;0.50;;;;;;;;;;4955340;28;20105;-82
2022/08/22 13:57:45;;;;;;;1.65;0.60;;;;;;;;;;4969166;28;20093;-84
2022/08/22 14:00:37;;;;;;;2.35;0.50;;;;;;;;;;4975684;28;20054;-80
2022/08/22 14:03:28;;;;;;;2.67;0.50;;;;;;;;;;4966379;28;20047;-81
2022/08/22 14:05:58;;;;;;;0.63;0.43;;;;;;;;;;4974838;28;20047;-82
2022/08/22 14:08:48;;;;;;;0.75;0.55;;;;;;;;;;4959423;28;20058;-83
2022/08/22 14:11:26;;;;;;;0.68;0.40;;;;;;;;;;4976945;28;20106;-82
2022/08/22 14:13:58;;;;;;;3.85;0.90;;;;;;;;;;4973437;28;20051;-81
2022/08/22 14:16:27;;;;;;;1.73;0.57;;;;;;;;;;4972509;28;20054;-82
2022/08/22 14:18:58;;;;;;;1.02;0.43;;;;;;;;;;4967919;28;20070;-82
2022/08/22 14:21:36;;;;;;;0.52;0.40;;;;;;;;;;4974238;28;20133;-81
2022/08/22 14:24:13;;;;;;;0.60;0.50;;;;;;;;;;4973884;28;20070;-81
2022/08/22 14:26:50;;;;;;;4.18;0.43;;;;;;;;;;4972139;28;20089;-81
2022/08/22 14:29:20;;;;;;;0.98;0.63;;;;;;;;;;4972234;28;20039;-82
2022/08/22 14:31:56;;;;;;;0.43;0.43;;;;;;;;;;4971636;28;20102;-81
2022/08/22 14:34:27;;;;;;;1.58;0.75;;;;;;;;;;4972614;28;20094;-81
2022/08/22 14:36:59;;;;;;;0.68;0.55;;;;;;;;;;4972846;28;20454;-82
2022/08/22 14:39:30;;;;;;;0.70;0.70;;;;;;;;;;4973420;28;20498;-81
2022/08/22 14:42:08;;;;;;;0.27;0.27;;;;;;;;;;4972894;28;20059;-83
2022/08/22 14:44:41;;;;;;;2.40;0.50;;;;;;;;;;4972984;28;20526;-81
2022/08/22 14:47:12;;;;;;;0.85;0.40;;;;;;;;;;4972446;28;20113;-81
2022/08/22 14:50:08;;;;;;;3.72;0.40;;;;;;;;;;4970876;28;20043;-82
2022/08/22 14:52:40;;;;;;;2.05;0.50;;;;;;;;;;4972977;28;20054;-82
2022/08/22 14:55:15;;;;;;;1.30;0.70;;;;;;;;;;4971928;28;20054;-81
2022/08/22 14:57:49;;;;;;;8.90;0.50;;;;;;;;;;4965024;28;20066;-82
2022/08/22 15:00:30;;;;;;;0.45;0.40;;;;;;;;;;4967968;28;20078;-81
2022/08/22 15:03:10;;;;;;;0.95;0.60;;;;;;;;;;4969516;28;20053;-82
2022/08/22 15:05:46;;;;;;;2.17;0.60;;;;;;;;;;4973395;28;20054;-82
2022/08/22 15:08:26;;;;;;;0.82;0.50;;;;;;;;;;4972324;28;20125;-81
2022/08/22 15:11:19;;;;;;;0.77;0.60;;;;;;;;;;4969554;28;20508;-81
2022/08/22 15:13:55;;;;;;;1.60;0.60;;;;;;;;;;4972100;28;20047;-81
2022/08/22 15:16:30;;;;;;;0.60;0.47;;;;;;;;;;4971754;28;20098;-81
2022/08/22 15:18:58;;;;;;;;;;;;;;;;;;4972312;28;20069;-81
2022/08/22 15:21:28;;;;;;;1.90;0.60;;;;;;;;;;4972833;28;19926;-81
2022/08/22 15:24:00;;;;;;;0.30;0.28;;;;;;;;;;4971985;28;20055;-81
2022/08/22 15:26:30;;;;;;;0.98;0.45;;;;;;;;;;4971381;28;20086;-81
2022/08/22 15:29:06;;;;;;;0.60;0.50;;;;;;;;;;4972403;28;20102;-81
2022/08/22 15:31:35;;;;;;;0.43;0.43;;;;;;;;;;4972368;28;20043;-82
2022/08/22 15:34:13;;;;;;;1.58;0.65;;;;;;;;;;4971486;28;20412;-80
2022/08/22 15:37:00;;;;;;;1.02;0.40;;;;;;;;;;4971674;28;20051;-81
2022/08/22 15:39:37;;;;;;;3.17;0.60;;;;;;;;;;4962934;28;20475;-81
2022/08/22 15:42:10;;;;;;;0.77;0.57;;;;;;;;;;4971683;28;20047;-82
2022/08/22 15:44:41;;;;;;;2.50;0.50;;;;;;;;;;4972195;28;20085;-81
2022/08/22 15:47:23;;;;;;;1.42;0.70;;;;;;;;;;4969902;28;20503;-81